Station Historical Data
Daily Summary for January 29, 2017 Units:  Both    English   Metric
« Previous Day
Next Day »
Daily Weekly Monthly Yearly Custom
  High: Low: Average:
Temperature: 28.7 °F /  -1.8 °C 18.2 °F /  -7.7 °C 25.8 °F /  -3.4 °C
Dew Point: 26.7 °F /  -2.9 °C 13.3 °F /  -10.4 °C 18.7 °F /  -7.4 °C
Humidity: 92% 58% 75%
Wind Speed: 12.0mph /  19.3km/h - 4.6mph /  7.4km/h
Wind Gust: 18.0mph /  29km/h - -
Wind- - West
Pressure: 29.80 in /  1009 hPa 29.62 in /  1002.9 hPa -
Precipitation: 0.00 in /  0 mm    
Historical Graphs
 
 
Tabular Data for January 29, 2017
Time Temperature Dew Point Pressure Wind Wind Speed Wind Gust Humidity Rainfall Rate (Hourly)
00:04 28.7 °F /  -1.8 °C 26.7 °F /  -2.9 °C 29.62in /  1002.9hPa West 5.0mph /  8km/h 11.0mph /  17.7km/h 92% 0.00in /  0mm
00:09 28.7 °F /  -1.8 °C 26.7 °F /  -2.9 °C 29.62in /  1002.9hPa West 6.0mph /  9.7km/h 13.0mph /  20.9km/h 92% 0.00in /  0mm
00:14 28.7 °F /  -1.8 °C 26.4 °F /  -3.1 °C 29.62in /  1002.9hPa WNW 5.0mph /  8km/h 9.0mph /  14.5km/h 91% 0.00in /  0mm
00:19 28.7 °F /  -1.8 °C 26.4 °F /  -3.1 °C 29.62in /  1002.9hPa WSW 5.0mph /  8km/h 10.0mph /  16.1km/h 91% 0.00in /  0mm
00:24 28.6 °F /  -1.9 °C 26.3 °F /  -3.2 °C 29.62in /  1002.9hPa West 5.0mph /  8km/h 12.0mph /  19.3km/h 91% 0.00in /  0mm
00:29 28.6 °F /  -1.9 °C 26.3 °F /  -3.2 °C 29.62in /  1002.9hPa WSW 4.0mph /  6.4km/h 10.0mph /  16.1km/h 91% 0.00in /  0mm
00:34 28.6 °F /  -1.9 °C 26.0 °F /  -3.3 °C 29.62in /  1002.9hPa WSW 8.0mph /  12.9km/h 10.0mph /  16.1km/h 90% 0.00in /  0mm
00:39 28.5 °F /  -1.9 °C 25.9 °F /  -3.4 °C 29.62in /  1002.9hPa West 4.0mph /  6.4km/h 9.0mph /  14.5km/h 90% 0.00in /  0mm
00:44 28.5 °F /  -1.9 °C 25.7 °F /  -3.5 °C 29.62in /  1002.9hPa WSW 5.0mph /  8km/h 9.0mph /  14.5km/h 89% 0.00in /  0mm
00:49 28.4 °F /  -2 °C 25.6 °F /  -3.6 °C 29.62in /  1002.9hPa West 5.0mph /  8km/h 10.0mph /  16.1km/h 89% 0.00in /  0mm
00:54 28.4 °F /  -2 °C 25.6 °F /  -3.6 °C 29.62in /  1002.9hPa West 5.0mph /  8km/h 13.0mph /  20.9km/h 89% 0.00in /  0mm
00:59 28.5 °F /  -1.9 °C 25.7 °F /  -3.5 °C 29.62in /  1002.9hPa West 5.0mph /  8km/h 13.0mph /  20.9km/h 89% 0.00in /  0mm
01:05 28.4 °F /  -2 °C 25.6 °F /  -3.6 °C 29.62in /  1002.9hPa WSW 5.0mph /  8km/h 12.0mph /  19.3km/h 89% 0.00in /  0mm
01:10 28.3 °F /  -2.1 °C 25.5 °F /  -3.6 °C 29.62in /  1002.9hPa WSW 6.0mph /  9.7km/h 12.0mph /  19.3km/h 89% 0.00in /  0mm
01:15 28.3 °F /  -2.1 °C 25.5 °F /  -3.6 °C 29.62in /  1002.9hPa WSW 6.0mph /  9.7km/h 11.0mph /  17.7km/h 89% 0.00in /  0mm
01:20 28.3 °F /  -2.1 °C 25.2 °F /  -3.8 °C 29.62in /  1002.9hPa SW 2.0mph /  3.2km/h 8.0mph /  12.9km/h 88% 0.00in /  0mm
01:25 28.2 °F /  -2.1 °C 25.1 °F /  -3.8 °C 29.62in /  1002.9hPa West 5.0mph /  8km/h 13.0mph /  20.9km/h 88% 0.00in /  0mm
01:30 28.2 °F /  -2.1 °C 25.1 °F /  -3.8 °C 29.62in /  1002.9hPa WSW 6.0mph /  9.7km/h 9.0mph /  14.5km/h 88% 0.00in /  0mm
01:35 28.1 °F /  -2.2 °C 25.3 °F /  -3.7 °C 29.62in /  1002.9hPa West 6.0mph /  9.7km/h 10.0mph /  16.1km/h 89% 0.00in /  0mm
01:40 28.1 °F /  -2.2 °C 25.0 °F /  -3.9 °C 29.62in /  1002.9hPa WNW 3.0mph /  4.8km/h 9.0mph /  14.5km/h 88% 0.00in /  0mm
01:45 28.0 °F /  -2.2 °C 24.9 °F /  -3.9 °C 29.62in /  1002.9hPa West 6.0mph /  9.7km/h 8.0mph /  12.9km/h 88% 0.00in /  0mm
01:50 28.0 °F /  -2.2 °C 24.9 °F /  -3.9 °C 29.63in /  1003.3hPa West 5.0mph /  8km/h 13.0mph /  20.9km/h 88% 0.00in /  0mm
01:55 27.9 °F /  -2.3 °C 24.8 °F /  -4 °C 29.63in /  1003.3hPa West 5.0mph /  8km/h 13.0mph /  20.9km/h 88% 0.00in /  0mm
02:00 27.9 °F /  -2.3 °C 24.8 °F /  -4 °C 29.63in /  1003.3hPa WSW 6.0mph /  9.7km/h 10.0mph /  16.1km/h 88% 0.00in /  0mm
02:05 27.8 °F /  -2.3 °C 24.4 °F /  -4.2 °C 29.63in /  1003.3hPa WSW 3.0mph /  4.8km/h 10.0mph /  16.1km/h 87% 0.00in /  0mm
02:10 27.8 °F /  -2.3 °C 24.4 °F /  -4.2 °C 29.63in /  1003.3hPa SW 4.0mph /  6.4km/h 9.0mph /  14.5km/h 87% 0.00in /  0mm
02:15 27.8 °F /  -2.3 °C 24.4 °F /  -4.2 °C 29.63in /  1003.3hPa West 4.0mph /  6.4km/h 9.0mph /  14.5km/h 87% 0.00in /  0mm
02:20 27.7 °F /  -2.4 °C 24.3 °F /  -4.3 °C 29.63in /  1003.3hPa West 4.0mph /  6.4km/h 11.0mph /  17.7km/h 87% 0.00in /  0mm
02:25 27.7 °F /  -2.4 °C 24.3 °F /  -4.3 °C 29.63in /  1003.3hPa West 4.0mph /  6.4km/h 11.0mph /  17.7km/h 87% 0.00in /  0mm
02:30 27.6 °F /  -2.4 °C 24.2 °F /  -4.3 °C 29.63in /  1003.3hPa West 4.0mph /  6.4km/h 9.0mph /  14.5km/h 87% 0.00in /  0mm
02:35 27.6 °F /  -2.4 °C 24.2 °F /  -4.3 °C 29.63in /  1003.3hPa West 2.0mph /  3.2km/h 10.0mph /  16.1km/h 87% 0.00in /  0mm
02:40 27.6 °F /  -2.4 °C 24.0 °F /  -4.4 °C 29.63in /  1003.3hPa WSW 4.0mph /  6.4km/h 9.0mph /  14.5km/h 86% 0.00in /  0mm
02:45 27.5 °F /  -2.5 °C 23.9 °F /  -4.5 °C 29.63in /  1003.3hPa West 4.0mph /  6.4km/h 9.0mph /  14.5km/h 86% 0.00in /  0mm
02:50 27.5 °F /  -2.5 °C 23.9 °F /  -4.5 °C 29.63in /  1003.3hPa West 4.0mph /  6.4km/h 9.0mph /  14.5km/h 86% 0.00in /  0mm
02:55 27.4 °F /  -2.6 °C 23.8 °F /  -4.6 °C 29.64in /  1003.6hPa West 2.0mph /  3.2km/h 8.0mph /  12.9km/h 86% 0.00in /  0mm
03:00 27.4 °F /  -2.6 °C 23.5 °F /  -4.7 °C 29.64in /  1003.6hPa SW 4.0mph /  6.4km/h 10.0mph /  16.1km/h 85% 0.00in /  0mm
03:05 27.4 °F /  -2.6 °C 23.5 °F /  -4.7 °C 29.64in /  1003.6hPa WSW 5.0mph /  8km/h 8.0mph /  12.9km/h 85% 0.00in /  0mm
03:10 27.4 °F /  -2.6 °C 23.8 °F /  -4.6 °C 29.64in /  1003.6hPa West 3.0mph /  4.8km/h 9.0mph /  14.5km/h 86% 0.00in /  0mm
03:15 27.3 °F /  -2.6 °C 23.7 °F /  -4.6 °C 29.64in /  1003.6hPa West 7.0mph /  11.3km/h 9.0mph /  14.5km/h 86% 0.00in /  0mm
03:20 27.4 °F /  -2.6 °C 23.5 °F /  -4.7 °C 29.64in /  1003.6hPa WSW 4.0mph /  6.4km/h 11.0mph /  17.7km/h 85% 0.00in /  0mm
03:25 27.4 °F /  -2.6 °C 23.5 °F /  -4.7 °C 29.64in /  1003.6hPa WSW 5.0mph /  8km/h 11.0mph /  17.7km/h 85% 0.00in /  0mm
03:30 27.3 °F /  -2.6 °C 23.4 °F /  -4.8 °C 29.64in /  1003.6hPa WSW 5.0mph /  8km/h 11.0mph /  17.7km/h 85% 0.00in /  0mm
03:35 27.3 °F /  -2.6 °C 23.4 °F /  -4.8 °C 29.64in /  1003.6hPa WSW 2.0mph /  3.2km/h 11.0mph /  17.7km/h 85% 0.00in /  0mm
03:40 27.4 °F /  -2.6 °C 23.5 °F /  -4.7 °C 29.64in /  1003.6hPa West 3.0mph /  4.8km/h 11.0mph /  17.7km/h 85% 0.00in /  0mm
03:45 27.4 °F /  -2.6 °C 23.2 °F /  -4.9 °C 29.64in /  1003.6hPa WNW 6.0mph /  9.7km/h 10.0mph /  16.1km/h 84% 0.00in /  0mm
03:50 27.4 °F /  -2.6 °C 23.2 °F /  -4.9 °C 29.64in /  1003.6hPa WNW 6.0mph /  9.7km/h 10.0mph /  16.1km/h 84% 0.00in /  0mm
03:55 27.4 °F /  -2.6 °C 23.2 °F /  -4.9 °C 29.65in /  1003.9hPa West 5.0mph /  8km/h 10.0mph /  16.1km/h 84% 0.00in /  0mm
04:00 27.4 °F /  -2.6 °C 23.2 °F /  -4.9 °C 29.65in /  1003.9hPa West 5.0mph /  8km/h 11.0mph /  17.7km/h 84% 0.00in /  0mm
04:05 27.4 °F /  -2.6 °C 23.2 °F /  -4.9 °C 29.65in /  1003.9hPa West 5.0mph /  8km/h 11.0mph /  17.7km/h 84% 0.00in /  0mm
04:10 27.5 °F /  -2.5 °C 23.3 °F /  -4.8 °C 29.65in /  1003.9hPa WSW 6.0mph /  9.7km/h 12.0mph /  19.3km/h 84% 0.00in /  0mm
04:15 27.4 °F /  -2.6 °C 22.9 °F /  -5.1 °C 29.65in /  1003.9hPa West 6.0mph /  9.7km/h 12.0mph /  19.3km/h 83% 0.00in /  0mm
04:20 27.4 °F /  -2.6 °C 22.9 °F /  -5.1 °C 29.65in /  1003.9hPa WNW 8.0mph /  12.9km/h 11.0mph /  17.7km/h 83% 0.00in /  0mm
04:25 27.4 °F /  -2.6 °C 23.2 °F /  -4.9 °C 29.65in /  1003.9hPa West 6.0mph /  9.7km/h 11.0mph /  17.7km/h 84% 0.00in /  0mm
04:30 27.3 °F /  -2.6 °C 23.1 °F /  -4.9 °C 29.65in /  1003.9hPa West 6.0mph /  9.7km/h 11.0mph /  17.7km/h 84% 0.00in /  0mm
04:35 27.2 °F /  -2.7 °C 23.0 °F /  -5 °C 29.66in /  1004.3hPa West 5.0mph /  8km/h 11.0mph /  17.7km/h 84% 0.00in /  0mm
04:39 27.2 °F /  -2.7 °C 23.0 °F /  -5 °C 29.66in /  1004.3hPa West 4.0mph /  6.4km/h 9.0mph /  14.5km/h 84% 0.00in /  0mm
04:45 27.0 °F /  -2.8 °C 22.8 °F /  -5.1 °C 29.66in /  1004.3hPa SW 4.0mph /  6.4km/h 7.0mph /  11.3km/h 84% 0.00in /  0mm
04:50 27.0 °F /  -2.8 °C 23.1 °F /  -4.9 °C 29.66in /  1004.3hPa WSW 3.0mph /  4.8km/h 8.0mph /  12.9km/h 85% 0.00in /  0mm
04:54 26.9 °F /  -2.8 °C 23.0 °F /  -5 °C 29.66in /  1004.3hPa West 4.0mph /  6.4km/h 8.0mph /  12.9km/h 85% 0.00in /  0mm
05:00 26.9 °F /  -2.8 °C 23.0 °F /  -5 °C 29.67in /  1004.6hPa West 4.0mph /  6.4km/h 8.0mph /  12.9km/h 85% 0.00in /  0mm
05:05 26.8 °F /  -2.9 °C 22.9 °F /  -5.1 °C 29.67in /  1004.6hPa SW 7.0mph /  11.3km/h 9.0mph /  14.5km/h 85% 0.00in /  0mm
05:10 26.7 °F /  -2.9 °C 22.8 °F /  -5.1 °C 29.67in /  1004.6hPa WSW 10.0mph /  16.1km/h 12.0mph /  19.3km/h 85% 0.00in /  0mm
05:15 26.7 °F /  -2.9 °C 22.5 °F /  -5.3 °C 29.67in /  1004.6hPa WNW 12.0mph /  19.3km/h 14.0mph /  22.5km/h 84% 0.00in /  0mm
05:20 26.5 °F /  -3.1 °C 22.0 °F /  -5.6 °C 29.67in /  1004.6hPa NW 5.0mph /  8km/h 12.0mph /  19.3km/h 83% 0.00in /  0mm
05:25 26.4 °F /  -3.1 °C 21.7 °F /  -5.7 °C 29.66in /  1004.3hPa West 3.0mph /  4.8km/h 11.0mph /  17.7km/h 82% 0.00in /  0mm
05:30 26.3 °F /  -3.2 °C 21.6 °F /  -5.8 °C 29.67in /  1004.6hPa WNW 5.0mph /  8km/h 11.0mph /  17.7km/h 82% 0.00in /  0mm
05:35 26.2 °F /  -3.2 °C 21.5 °F /  -5.8 °C 29.67in /  1004.6hPa WNW 5.0mph /  8km/h 9.0mph /  14.5km/h 82% 0.00in /  0mm
05:40 26.1 °F /  -3.3 °C 21.4 °F /  -5.9 °C 29.67in /  1004.6hPa West 5.0mph /  8km/h 9.0mph /  14.5km/h 82% 0.00in /  0mm
05:45 26.1 °F /  -3.3 °C 21.4 °F /  -5.9 °C 29.67in /  1004.6hPa West 5.0mph /  8km/h 11.0mph /  17.7km/h 82% 0.00in /  0mm
05:50 26.1 °F /  -3.3 °C 21.4 °F /  -5.9 °C 29.67in /  1004.6hPa West 5.0mph /  8km/h 11.0mph /  17.7km/h 82% 0.00in /  0mm
05:54 26.0 °F /  -3.3 °C 21.3 °F /  -5.9 °C 29.67in /  1004.6hPa WNW 8.0mph /  12.9km/h 9.0mph /  14.5km/h 82% 0.00in /  0mm
05:59 26.0 °F /  -3.3 °C 21.3 °F /  -5.9 °C 29.67in /  1004.6hPa West 4.0mph /  6.4km/h 9.0mph /  14.5km/h 82% 0.00in /  0mm
06:05 26.0 °F /  -3.3 °C 21.3 °F /  -5.9 °C 29.67in /  1004.6hPa West 4.0mph /  6.4km/h 5.0mph /  8km/h 82% 0.00in /  0mm
06:10 25.9 °F /  -3.4 °C 21.2 °F /  -6 °C 29.67in /  1004.6hPa West 4.0mph /  6.4km/h 9.0mph /  14.5km/h 82% 0.00in /  0mm
06:15 25.9 °F /  -3.4 °C 20.9 °F /  -6.2 °C 29.67in /  1004.6hPa West 5.0mph /  8km/h 11.0mph /  17.7km/h 81% 0.00in /  0mm
06:20 25.9 °F /  -3.4 °C 20.6 °F /  -6.3 °C 29.67in /  1004.6hPa SW 6.0mph /  9.7km/h 15.0mph /  24.1km/h 80% 0.00in /  0mm
06:25 25.9 °F /  -3.4 °C 20.3 °F /  -6.5 °C 29.67in /  1004.6hPa West 11.0mph /  17.7km/h 11.0mph /  17.7km/h 79% 0.00in /  0mm
06:30 25.9 °F /  -3.4 °C 19.7 °F /  -6.8 °C 29.67in /  1004.6hPa SSW 10.0mph /  16.1km/h 11.0mph /  17.7km/h 77% 0.00in /  0mm
06:34 25.8 °F /  -3.4 °C 19.6 °F /  -6.9 °C 29.67in /  1004.6hPa West 6.0mph /  9.7km/h 12.0mph /  19.3km/h 77% 0.00in /  0mm
06:40 25.8 °F /  -3.4 °C 19.3 °F /  -7.1 °C 29.67in /  1004.6hPa West 6.0mph /  9.7km/h 12.0mph /  19.3km/h 76% 0.00in /  0mm
06:45 25.7 °F /  -3.5 °C 19.2 °F /  -7.1 °C 29.67in /  1004.6hPa West 6.0mph /  9.7km/h 14.0mph /  22.5km/h 76% 0.00in /  0mm
06:50 25.6 °F /  -3.6 °C 19.1 °F /  -7.2 °C 29.68in /  1005hPa West 6.0mph /  9.7km/h 14.0mph /  22.5km/h 76% 0.00in /  0mm
06:55 25.5 °F /  -3.6 °C 19.0 °F /  -7.2 °C 29.68in /  1005hPa West 6.0mph /  9.7km/h 13.0mph /  20.9km/h 76% 0.00in /  0mm
06:59 25.5 °F /  -3.6 °C 18.7 °F /  -7.4 °C 29.67in /  1004.6hPa WNW 10.0mph /  16.1km/h 11.0mph /  17.7km/h 75% 0.00in /  0mm
07:04 25.4 °F /  -3.7 °C 18.6 °F /  -7.4 °C 29.68in /  1005hPa West 5.0mph /  8km/h 11.0mph /  17.7km/h 75% 0.00in /  0mm
07:09 25.4 °F /  -3.7 °C 18.6 °F /  -7.4 °C 29.68in /  1005hPa NW 4.0mph /  6.4km/h 11.0mph /  17.7km/h 75% 0.00in /  0mm
07:15 25.3 °F /  -3.7 °C 18.5 °F /  -7.5 °C 29.68in /  1005hPa WNW 9.0mph /  14.5km/h 11.0mph /  17.7km/h 75% 0.00in /  0mm
07:20 25.2 °F /  -3.8 °C 18.7 °F /  -7.4 °C 29.68in /  1005hPa West 3.0mph /  4.8km/h 9.0mph /  14.5km/h 76% 0.00in /  0mm
07:25 25.3 °F /  -3.7 °C 18.5 °F /  -7.5 °C 29.68in /  1005hPa WNW 5.0mph /  8km/h 9.0mph /  14.5km/h 75% 0.00in /  0mm
07:30 25.2 °F /  -3.8 °C 18.7 °F /  -7.4 °C 29.68in /  1005hPa West 9.0mph /  14.5km/h 10.0mph /  16.1km/h 76% 0.00in /  0mm
07:35 25.2 °F /  -3.8 °C 18.7 °F /  -7.4 °C 29.69in /  1005.3hPa WNW 3.0mph /  4.8km/h 9.0mph /  14.5km/h 76% 0.00in /  0mm
07:39 25.1 °F /  -3.8 °C 18.6 °F /  -7.4 °C 29.69in /  1005.3hPa West 5.0mph /  8km/h 11.0mph /  17.7km/h 76% 0.00in /  0mm
07:45 25.1 °F /  -3.8 °C 18.6 °F /  -7.4 °C 29.69in /  1005.3hPa West 5.0mph /  8km/h 11.0mph /  17.7km/h 76% 0.00in /  0mm
07:50 25.1 °F /  -3.8 °C 18.6 °F /  -7.4 °C 29.69in /  1005.3hPa West 5.0mph /  8km/h 10.0mph /  16.1km/h 76% 0.00in /  0mm
07:54 25.1 °F /  -3.8 °C 18.9 °F /  -7.3 °C 29.69in /  1005.3hPa WNW 6.0mph /  9.7km/h 10.0mph /  16.1km/h 77% 0.00in /  0mm
07:59 25.1 °F /  -3.8 °C 18.9 °F /  -7.3 °C 29.69in /  1005.3hPa West 3.0mph /  4.8km/h 6.0mph /  9.7km/h 77% 0.00in /  0mm
08:04 25.0 °F /  -3.9 °C 18.8 °F /  -7.3 °C 29.70in /  1005.6hPa West 6.0mph /  9.7km/h 8.0mph /  12.9km/h 77% 0.00in /  0mm
08:09 25.1 °F /  -3.8 °C 18.9 °F /  -7.3 °C 29.70in /  1005.6hPa West 4.0mph /  6.4km/h 10.0mph /  16.1km/h 77% 0.00in /  0mm
08:14 25.1 °F /  -3.8 °C 18.9 °F /  -7.3 °C 29.69in /  1005.3hPa West 7.0mph /  11.3km/h 10.0mph /  16.1km/h 77% 0.00in /  0mm
08:19 25.1 °F /  -3.8 °C 18.9 °F /  -7.3 °C 29.69in /  1005.3hPa WNW 4.0mph /  6.4km/h 11.0mph /  17.7km/h 77% 0.00in /  0mm
08:25 25.2 °F /  -3.8 °C 18.7 °F /  -7.4 °C 29.70in /  1005.6hPa West 4.0mph /  6.4km/h 11.0mph /  17.7km/h 76% 0.00in /  0mm
08:30 25.2 °F /  -3.8 °C 19.0 °F /  -7.2 °C 29.70in /  1005.6hPa West 3.0mph /  4.8km/h 10.0mph /  16.1km/h 77% 0.00in /  0mm
08:35 25.3 °F /  -3.7 °C 19.1 °F /  -7.2 °C 29.70in /  1005.6hPa West 7.0mph /  11.3km/h 9.0mph /  14.5km/h 77% 0.00in /  0mm
08:40 25.3 °F /  -3.7 °C 19.1 °F /  -7.2 °C 29.70in /  1005.6hPa West 6.0mph /  9.7km/h 8.0mph /  12.9km/h 77% 0.00in /  0mm
08:44 25.4 °F /  -3.7 °C 19.5 °F /  -6.9 °C 29.70in /  1005.6hPa West 4.0mph /  6.4km/h 8.0mph /  12.9km/h 78% 0.00in /  0mm
08:50 25.4 °F /  -3.7 °C 19.2 °F /  -7.1 °C 29.71in /  1006hPa West 4.0mph /  6.4km/h 9.0mph /  14.5km/h 77% 0.00in /  0mm
08:55 25.4 °F /  -3.7 °C 19.2 °F /  -7.1 °C 29.71in /  1006hPa West 5.0mph /  8km/h 9.0mph /  14.5km/h 77% 0.00in /  0mm
09:00 25.5 °F /  -3.6 °C 19.0 °F /  -7.2 °C 29.71in /  1006hPa West 4.0mph /  6.4km/h 9.0mph /  14.5km/h 76% 0.00in /  0mm
09:05 25.6 °F /  -3.6 °C 19.1 °F /  -7.2 °C 29.71in /  1006hPa West 4.0mph /  6.4km/h 8.0mph /  12.9km/h 76% 0.00in /  0mm
09:09 25.7 °F /  -3.5 °C 18.9 °F /  -7.3 °C 29.71in /  1006hPa WSW 7.0mph /  11.3km/h 9.0mph /  14.5km/h 75% 0.00in /  0mm
09:14 25.8 °F /  -3.4 °C 18.7 °F /  -7.4 °C 29.71in /  1006hPa West 5.0mph /  8km/h 11.0mph /  17.7km/h 74% 0.00in /  0mm
09:19 25.9 °F /  -3.4 °C 19.1 °F /  -7.2 °C 29.71in /  1006hPa West 3.0mph /  4.8km/h 10.0mph /  16.1km/h 75% 0.00in /  0mm
09:24 25.9 °F /  -3.4 °C 18.7 °F /  -7.4 °C 29.71in /  1006hPa West 5.0mph /  8km/h 9.0mph /  14.5km/h 74% 0.00in /  0mm
09:29 26.0 °F /  -3.3 °C 18.5 °F /  -7.5 °C 29.72in /  1006.3hPa WNW 6.0mph /  9.7km/h 13.0mph /  20.9km/h 73% 0.00in /  0mm
09:34 26.1 °F /  -3.3 °C 18.6 °F /  -7.4 °C 29.71in /  1006hPa WNW 3.0mph /  4.8km/h 10.0mph /  16.1km/h 73% 0.00in /  0mm
09:39 26.2 °F /  -3.2 °C 18.4 °F /  -7.6 °C 29.71in /  1006hPa WNW 6.0mph /  9.7km/h 11.0mph /  17.7km/h 72% 0.00in /  0mm
09:44 26.2 °F /  -3.2 °C 18.4 °F /  -7.6 °C 29.71in /  1006hPa West 6.0mph /  9.7km/h 14.0mph /  22.5km/h 72% 0.00in /  0mm
09:49 26.3 °F /  -3.2 °C 18.5 °F /  -7.5 °C 29.72in /  1006.3hPa West 6.0mph /  9.7km/h 14.0mph /  22.5km/h 72% 0.00in /  0mm
09:55 26.3 °F /  -3.2 °C 18.5 °F /  -7.5 °C 29.72in /  1006.3hPa West 6.0mph /  9.7km/h 12.0mph /  19.3km/h 72% 0.00in /  0mm
10:00 26.4 °F /  -3.1 °C 18.6 °F /  -7.4 °C 29.72in /  1006.3hPa West 5.0mph /  8km/h 11.0mph /  17.7km/h 72% 0.00in /  0mm
10:05 26.5 °F /  -3.1 °C 18.7 °F /  -7.4 °C 29.73in /  1006.7hPa West 5.0mph /  8km/h 11.0mph /  17.7km/h 72% 0.00in /  0mm
10:09 26.6 °F /  -3 °C 18.5 °F /  -7.5 °C 29.73in /  1006.7hPa West 6.0mph /  9.7km/h 10.0mph /  16.1km/h 71% 0.00in /  0mm
10:14 26.6 °F /  -3 °C 17.8 °F /  -7.9 °C 29.73in /  1006.7hPa West 6.0mph /  9.7km/h 13.0mph /  20.9km/h 69% 0.00in /  0mm
10:19 26.8 °F /  -2.9 °C 18.3 °F /  -7.6 °C 29.73in /  1006.7hPa West 9.0mph /  14.5km/h 14.0mph /  22.5km/h 70% 0.00in /  0mm
10:24 26.7 °F /  -2.9 °C 17.6 °F /  -8 °C 29.73in /  1006.7hPa West 9.0mph /  14.5km/h 14.0mph /  22.5km/h 68% 0.00in /  0mm
10:29 26.7 °F /  -2.9 °C 17.9 °F /  -7.8 °C 29.73in /  1006.7hPa West 5.0mph /  8km/h 12.0mph /  19.3km/h 69% 0.00in /  0mm
10:34 26.7 °F /  -2.9 °C 17.6 °F /  -8 °C 29.73in /  1006.7hPa West 6.0mph /  9.7km/h 12.0mph /  19.3km/h 68% 0.00in /  0mm
10:40 26.7 °F /  -2.9 °C 17.2 °F /  -8.2 °C 29.73in /  1006.7hPa West 6.0mph /  9.7km/h 10.0mph /  16.1km/h 67% 0.00in /  0mm
10:45 26.7 °F /  -2.9 °C 17.6 °F /  -8 °C 29.73in /  1006.7hPa WSW 8.0mph /  12.9km/h 11.0mph /  17.7km/h 68% 0.00in /  0mm
10:49 26.8 °F /  -2.9 °C 17.3 °F /  -8.2 °C 29.73in /  1006.7hPa West 6.0mph /  9.7km/h 12.0mph /  19.3km/h 67% 0.00in /  0mm
10:54 26.9 °F /  -2.8 °C 17.4 °F /  -8.1 °C 29.74in /  1007hPa West 6.0mph /  9.7km/h 13.0mph /  20.9km/h 67% 0.00in /  0mm
10:59 26.8 °F /  -2.9 °C 16.6 °F /  -8.6 °C 29.74in /  1007hPa West 6.0mph /  9.7km/h 13.0mph /  20.9km/h 65% 0.00in /  0mm
11:05 26.9 °F /  -2.8 °C 16.7 °F /  -8.5 °C 29.74in /  1007hPa West 7.0mph /  11.3km/h 12.0mph /  19.3km/h 65% 0.00in /  0mm
11:10 26.9 °F /  -2.8 °C 16.7 °F /  -8.5 °C 29.73in /  1006.7hPa West 7.0mph /  11.3km/h 18.0mph /  29km/h 65% 0.00in /  0mm
11:14 27.0 °F /  -2.8 °C 16.8 °F /  -8.4 °C 29.73in /  1006.7hPa WNW 10.0mph /  16.1km/h 14.0mph /  22.5km/h 65% 0.00in /  0mm
11:19 27.1 °F /  -2.7 °C 16.9 °F /  -8.4 °C 29.74in /  1007hPa West 6.0mph /  9.7km/h 14.0mph /  22.5km/h 65% 0.00in /  0mm
11:24 27.3 °F /  -2.6 °C 17.1 °F /  -8.3 °C 29.74in /  1007hPa WSW 8.0mph /  12.9km/h 12.0mph /  19.3km/h 65% 0.00in /  0mm
11:29 27.2 °F /  -2.7 °C 17.0 °F /  -8.3 °C 29.74in /  1007hPa West 5.0mph /  8km/h 10.0mph /  16.1km/h 65% 0.00in /  0mm
11:34 27.4 °F /  -2.6 °C 17.2 °F /  -8.2 °C 29.74in /  1007hPa West 4.0mph /  6.4km/h 11.0mph /  17.7km/h 65% 0.00in /  0mm
11:39 27.6 °F /  -2.4 °C 17.0 °F /  -8.3 °C 29.74in /  1007hPa WSW 2.0mph /  3.2km/h 8.0mph /  12.9km/h 64% 0.00in /  0mm
11:44 27.6 °F /  -2.4 °C 17.0 °F /  -8.3 °C 29.74in /  1007hPa West 8.0mph /  12.9km/h 15.0mph /  24.1km/h 64% 0.00in /  0mm
11:49 27.4 °F /  -2.6 °C 16.4 °F /  -8.7 °C 29.73in /  1006.7hPa West 6.0mph /  9.7km/h 15.0mph /  24.1km/h 63% 0.00in /  0mm
11:54 27.5 °F /  -2.5 °C 16.9 °F /  -8.4 °C 29.73in /  1006.7hPa West 6.0mph /  9.7km/h 14.0mph /  22.5km/h 64% 0.00in /  0mm
11:59 27.7 °F /  -2.4 °C 17.1 °F /  -8.3 °C 29.73in /  1006.7hPa West 4.0mph /  6.4km/h 9.0mph /  14.5km/h 64% 0.00in /  0mm
12:04 27.7 °F /  -2.4 °C 17.5 °F /  -8.1 °C 29.73in /  1006.7hPa West 5.0mph /  8km/h 8.0mph /  12.9km/h 65% 0.00in /  0mm
12:10 27.8 °F /  -2.3 °C 17.6 °F /  -8 °C 29.73in /  1006.7hPa West 5.0mph /  8km/h 10.0mph /  16.1km/h 65% 0.00in /  0mm
12:14 27.9 °F /  -2.3 °C 17.3 °F /  -8.2 °C 29.73in /  1006.7hPa West 4.0mph /  6.4km/h 10.0mph /  16.1km/h 64% 0.00in /  0mm
12:19 28.0 °F /  -2.2 °C 17.0 °F /  -8.3 °C 29.73in /  1006.7hPa West 3.0mph /  4.8km/h 11.0mph /  17.7km/h 63% 0.00in /  0mm
12:24 27.9 °F /  -2.3 °C 16.9 °F /  -8.4 °C 29.73in /  1006.7hPa West 6.0mph /  9.7km/h 12.0mph /  19.3km/h 63% 0.00in /  0mm
12:29 27.9 °F /  -2.3 °C 16.6 °F /  -8.6 °C 29.73in /  1006.7hPa WSW 7.0mph /  11.3km/h 13.0mph /  20.9km/h 62% 0.00in /  0mm
12:34 27.8 °F /  -2.3 °C 16.5 °F /  -8.6 °C 29.73in /  1006.7hPa West 3.0mph /  4.8km/h 8.0mph /  12.9km/h 62% 0.00in /  0mm
12:39 27.8 °F /  -2.3 °C 16.8 °F /  -8.4 °C 29.72in /  1006.3hPa WSW 3.0mph /  4.8km/h 9.0mph /  14.5km/h 63% 0.00in /  0mm
12:44 27.8 °F /  -2.3 °C 17.2 °F /  -8.2 °C 29.72in /  1006.3hPa West 6.0mph /  9.7km/h 11.0mph /  17.7km/h 64% 0.00in /  0mm
12:49 27.7 °F /  -2.4 °C 17.1 °F /  -8.3 °C 29.72in /  1006.3hPa West 4.0mph /  6.4km/h 11.0mph /  17.7km/h 64% 0.00in /  0mm
12:54 27.7 °F /  -2.4 °C 17.5 °F /  -8.1 °C 29.72in /  1006.3hPa West 4.0mph /  6.4km/h 8.0mph /  12.9km/h 65% 0.00in /  0mm
12:59 27.7 °F /  -2.4 °C 17.5 °F /  -8.1 °C 29.72in /  1006.3hPa West 4.0mph /  6.4km/h 9.0mph /  14.5km/h 65% 0.00in /  0mm
13:04 27.6 °F /  -2.4 °C 17.0 °F /  -8.3 °C 29.72in /  1006.3hPa West 5.0mph /  8km/h 9.0mph /  14.5km/h 64% 0.00in /  0mm
13:10 27.6 °F /  -2.4 °C 16.6 °F /  -8.6 °C 29.72in /  1006.3hPa WSW 5.0mph /  8km/h 10.0mph /  16.1km/h 63% 0.00in /  0mm
13:15 27.6 °F /  -2.4 °C 17.4 °F /  -8.1 °C 29.72in /  1006.3hPa WSW 4.0mph /  6.4km/h 10.0mph /  16.1km/h 65% 0.00in /  0mm
13:19 27.7 °F /  -2.4 °C 17.5 °F /  -8.1 °C 29.72in /  1006.3hPa WSW 5.0mph /  8km/h 8.0mph /  12.9km/h 65% 0.00in /  0mm
13:24 27.7 °F /  -2.4 °C 16.7 °F /  -8.5 °C 29.72in /  1006.3hPa WSW 3.0mph /  4.8km/h 10.0mph /  16.1km/h 63% 0.00in /  0mm
13:29 27.7 °F /  -2.4 °C 16.7 °F /  -8.5 °C 29.72in /  1006.3hPa WNW 6.0mph /  9.7km/h 9.0mph /  14.5km/h 63% 0.00in /  0mm
13:34 27.7 °F /  -2.4 °C 16.7 °F /  -8.5 °C 29.71in /  1006hPa SW 7.0mph /  11.3km/h 9.0mph /  14.5km/h 63% 0.00in /  0mm
13:39 27.7 °F /  -2.4 °C 16.7 °F /  -8.5 °C 29.72in /  1006.3hPa WNW 8.0mph /  12.9km/h 14.0mph /  22.5km/h 63% 0.00in /  0mm
13:44 27.7 °F /  -2.4 °C 16.7 °F /  -8.5 °C 29.72in /  1006.3hPa West 6.0mph /  9.7km/h 11.0mph /  17.7km/h 63% 0.00in /  0mm
13:49 27.5 °F /  -2.5 °C 16.9 °F /  -8.4 °C 29.72in /  1006.3hPa WNW 7.0mph /  11.3km/h 12.0mph /  19.3km/h 64% 0.00in /  0mm
13:54 27.3 °F /  -2.6 °C 16.4 °F /  -8.7 °C 29.72in /  1006.3hPa WNW 7.0mph /  11.3km/h 12.0mph /  19.3km/h 63% 0.00in /  0mm
13:59 27.4 °F /  -2.6 °C 16.4 °F /  -8.7 °C 29.72in /  1006.3hPa West 6.0mph /  9.7km/h 12.0mph /  19.3km/h 63% 0.00in /  0mm
14:04 27.6 °F /  -2.4 °C 16.6 °F /  -8.6 °C 29.72in /  1006.3hPa West 6.0mph /  9.7km/h 11.0mph /  17.7km/h 63% 0.00in /  0mm
14:09 27.7 °F /  -2.4 °C 16.4 °F /  -8.7 °C 29.72in /  1006.3hPa West 6.0mph /  9.7km/h 12.0mph /  19.3km/h 62% 0.00in /  0mm
14:15 27.9 °F /  -2.3 °C 16.2 °F /  -8.8 °C 29.72in /  1006.3hPa West 8.0mph /  12.9km/h 14.0mph /  22.5km/h 61% 0.00in /  0mm
14:20 27.8 °F /  -2.3 °C 16.1 °F /  -8.8 °C 29.72in /  1006.3hPa West 4.0mph /  6.4km/h 14.0mph /  22.5km/h 61% 0.00in /  0mm
14:24 27.9 °F /  -2.3 °C 16.2 °F /  -8.8 °C 29.72in /  1006.3hPa West 6.0mph /  9.7km/h 14.0mph /  22.5km/h 61% 0.00in /  0mm
14:29 27.9 °F /  -2.3 °C 15.8 °F /  -9 °C 29.72in /  1006.3hPa WNW 8.0mph /  12.9km/h 16.0mph /  25.7km/h 60% 0.00in /  0mm
14:34 27.9 °F /  -2.3 °C 16.2 °F /  -8.8 °C 29.72in /  1006.3hPa WSW 5.0mph /  8km/h 11.0mph /  17.7km/h 61% 0.00in /  0mm
14:39 27.9 °F /  -2.3 °C 16.2 °F /  -8.8 °C 29.72in /  1006.3hPa WSW 5.0mph /  8km/h 9.0mph /  14.5km/h 61% 0.00in /  0mm
14:44 27.8 °F /  -2.3 °C 16.1 °F /  -8.8 °C 29.72in /  1006.3hPa West 5.0mph /  8km/h 10.0mph /  16.1km/h 61% 0.00in /  0mm
14:49 27.6 °F /  -2.4 °C 15.9 °F /  -8.9 °C 29.72in /  1006.3hPa WNW 7.0mph /  11.3km/h 14.0mph /  22.5km/h 61% 0.00in /  0mm
14:54 27.5 °F /  -2.5 °C 16.2 °F /  -8.8 °C 29.73in /  1006.7hPa West 6.0mph /  9.7km/h 14.0mph /  22.5km/h 62% 0.00in /  0mm
15:00 27.5 °F /  -2.5 °C 16.5 °F /  -8.6 °C 29.73in /  1006.7hPa WNW 5.0mph /  8km/h 10.0mph /  16.1km/h 63% 0.00in /  0mm
15:04 27.2 °F /  -2.7 °C 15.9 °F /  -8.9 °C 29.73in /  1006.7hPa WNW 8.0mph /  12.9km/h 12.0mph /  19.3km/h 62% 0.00in /  0mm
15:09 27.0 °F /  -2.8 °C 16.1 °F /  -8.8 °C 29.73in /  1006.7hPa West 8.0mph /  12.9km/h 14.0mph /  22.5km/h 63% 0.00in /  0mm
15:14 27.0 °F /  -2.8 °C 16.4 °F /  -8.7 °C 29.73in /  1006.7hPa West 6.0mph /  9.7km/h 10.0mph /  16.1km/h 64% 0.00in /  0mm
15:19 27.1 °F /  -2.7 °C 16.9 °F /  -8.4 °C 29.73in /  1006.7hPa WSW 4.0mph /  6.4km/h 8.0mph /  12.9km/h 65% 0.00in /  0mm
15:24 27.2 °F /  -2.7 °C 16.3 °F /  -8.7 °C 29.73in /  1006.7hPa West 5.0mph /  8km/h 10.0mph /  16.1km/h 63% 0.00in /  0mm
15:29 27.3 °F /  -2.6 °C 16.0 °F /  -8.9 °C 29.73in /  1006.7hPa West 5.0mph /  8km/h 10.0mph /  16.1km/h 62% 0.00in /  0mm
15:34 27.3 °F /  -2.6 °C 14.8 °F /  -9.6 °C 29.73in /  1006.7hPa West 6.0mph /  9.7km/h 11.0mph /  17.7km/h 59% 0.00in /  0mm
15:39 27.3 °F /  -2.6 °C 14.5 °F /  -9.7 °C 29.74in /  1007hPa West 6.0mph /  9.7km/h 11.0mph /  17.7km/h 58% 0.00in /  0mm
15:45 27.2 °F /  -2.7 °C 14.4 °F /  -9.8 °C 29.74in /  1007hPa WNW 3.0mph /  4.8km/h 11.0mph /  17.7km/h 58% 0.00in /  0mm
15:50 27.3 °F /  -2.6 °C 15.2 °F /  -9.3 °C 29.74in /  1007hPa West 5.0mph /  8km/h 14.0mph /  22.5km/h 60% 0.00in /  0mm
15:54 27.2 °F /  -2.7 °C 15.1 °F /  -9.4 °C 29.74in /  1007hPa WSW 1.0mph /  1.6km/h 10.0mph /  16.1km/h 60% 0.00in /  0mm
15:59 27.2 °F /  -2.7 °C 15.1 °F /  -9.4 °C 29.74in /  1007hPa WSW 4.0mph /  6.4km/h 12.0mph /  19.3km/h 60% 0.00in /  0mm
16:04 27.2 °F /  -2.7 °C 15.1 °F /  -9.4 °C 29.74in /  1007hPa WSW 6.0mph /  9.7km/h 9.0mph /  14.5km/h 60% 0.00in /  0mm
16:09 27.2 °F /  -2.7 °C 15.1 °F /  -9.4 °C 29.75in /  1007.3hPa SW 7.0mph /  11.3km/h 14.0mph /  22.5km/h 60% 0.00in /  0mm
16:14 27.2 °F /  -2.7 °C 14.8 °F /  -9.6 °C 29.75in /  1007.3hPa WSW 3.0mph /  4.8km/h 12.0mph /  19.3km/h 59% 0.00in /  0mm
16:20 27.2 °F /  -2.7 °C 15.1 °F /  -9.4 °C 29.75in /  1007.3hPa West 5.0mph /  8km/h 12.0mph /  19.3km/h 60% 0.00in /  0mm
16:24 27.1 °F /  -2.7 °C 15.0 °F /  -9.4 °C 29.75in /  1007.3hPa West 5.0mph /  8km/h 9.0mph /  14.5km/h 60% 0.00in /  0mm
16:29 27.1 °F /  -2.7 °C 14.7 °F /  -9.6 °C 29.75in /  1007.3hPa West 6.0mph /  9.7km/h 13.0mph /  20.9km/h 59% 0.00in /  0mm
16:34 27.0 °F /  -2.8 °C 14.6 °F /  -9.7 °C 29.75in /  1007.3hPa West 6.0mph /  9.7km/h 13.0mph /  20.9km/h 59% 0.00in /  0mm
16:40 26.9 °F /  -2.8 °C 14.5 °F /  -9.7 °C 29.76in /  1007.7hPa West 5.0mph /  8km/h 12.0mph /  19.3km/h 59% 0.00in /  0mm
16:44 26.9 °F /  -2.8 °C 14.5 °F /  -9.7 °C 29.76in /  1007.7hPa West 5.0mph /  8km/h 12.0mph /  19.3km/h 59% 0.00in /  0mm
16:49 26.9 °F /  -2.8 °C 14.5 °F /  -9.7 °C 29.76in /  1007.7hPa WNW 3.0mph /  4.8km/h 10.0mph /  16.1km/h 59% 0.00in /  0mm
16:54 26.8 °F /  -2.9 °C 14.8 °F /  -9.6 °C 29.76in /  1007.7hPa West 5.0mph /  8km/h 10.0mph /  16.1km/h 60% 0.00in /  0mm
16:59 26.7 °F /  -2.9 °C 14.7 °F /  -9.6 °C 29.76in /  1007.7hPa WSW 2.0mph /  3.2km/h 11.0mph /  17.7km/h 60% 0.00in /  0mm
17:04 26.6 °F /  -3 °C 14.9 °F /  -9.5 °C 29.76in /  1007.7hPa NW 4.0mph /  6.4km/h 10.0mph /  16.1km/h 61% 0.00in /  0mm
17:09 26.5 °F /  -3.1 °C 15.2 °F /  -9.3 °C 29.77in /  1008hPa WNW 6.0mph /  9.7km/h 12.0mph /  19.3km/h 62% 0.00in /  0mm
17:14 26.4 °F /  -3.1 °C 15.5 °F /  -9.2 °C 29.77in /  1008hPa WNW 7.0mph /  11.3km/h 12.0mph /  19.3km/h 63% 0.00in /  0mm
17:19 26.4 °F /  -3.1 °C 15.9 °F /  -8.9 °C 29.77in /  1008hPa West 6.0mph /  9.7km/h 9.0mph /  14.5km/h 64% 0.00in /  0mm
17:24 26.3 °F /  -3.2 °C 16.5 °F /  -8.6 °C 29.77in /  1008hPa WNW 5.0mph /  8km/h 9.0mph /  14.5km/h 66% 0.00in /  0mm
17:29 26.2 °F /  -3.2 °C 16.7 °F /  -8.5 °C 29.77in /  1008hPa WNW 4.0mph /  6.4km/h 9.0mph /  14.5km/h 67% 0.00in /  0mm
17:34 26.1 °F /  -3.3 °C 17.0 °F /  -8.3 °C 29.77in /  1008hPa WNW 4.0mph /  6.4km/h 8.0mph /  12.9km/h 68% 0.00in /  0mm
17:39 26.0 °F /  -3.3 °C 17.2 °F /  -8.2 °C 29.77in /  1008hPa WNW 3.0mph /  4.8km/h 8.0mph /  12.9km/h 69% 0.00in /  0mm
17:44 25.9 °F /  -3.4 °C 17.8 °F /  -7.9 °C 29.77in /  1008hPa NW 4.0mph /  6.4km/h 8.0mph /  12.9km/h 71% 0.00in /  0mm
17:49 25.7 °F /  -3.5 °C 17.9 °F /  -7.8 °C 29.77in /  1008hPa WNW 3.0mph /  4.8km/h 8.0mph /  12.9km/h 72% 0.00in /  0mm
17:54 25.6 °F /  -3.6 °C 17.8 °F /  -7.9 °C 29.77in /  1008hPa WNW 4.0mph /  6.4km/h 9.0mph /  14.5km/h 72% 0.00in /  0mm
17:59 25.5 °F /  -3.6 °C 17.7 °F /  -7.9 °C 29.78in /  1008.4hPa West 3.0mph /  4.8km/h 8.0mph /  12.9km/h 72% 0.00in /  0mm
18:04 25.4 °F /  -3.7 °C 17.6 °F /  -8 °C 29.78in /  1008.4hPa West 8.0mph /  12.9km/h 8.0mph /  12.9km/h 72% 0.00in /  0mm
18:09 25.3 °F /  -3.7 °C 17.5 °F /  -8.1 °C 29.78in /  1008.4hPa WSW 4.0mph /  6.4km/h 9.0mph /  14.5km/h 72% 0.00in /  0mm
18:14 25.3 °F /  -3.7 °C 17.9 °F /  -7.8 °C 29.77in /  1008hPa WNW 5.0mph /  8km/h 11.0mph /  17.7km/h 73% 0.00in /  0mm
18:19 25.2 °F /  -3.8 °C 17.8 °F /  -7.9 °C 29.77in /  1008hPa WNW 2.0mph /  3.2km/h 9.0mph /  14.5km/h 73% 0.00in /  0mm
18:24 25.1 °F /  -3.8 °C 17.7 °F /  -7.9 °C 29.78in /  1008.4hPa West 3.0mph /  4.8km/h 8.0mph /  12.9km/h 73% 0.00in /  0mm
18:29 25.1 °F /  -3.8 °C 17.7 °F /  -7.9 °C 29.78in /  1008.4hPa West 5.0mph /  8km/h 10.0mph /  16.1km/h 73% 0.00in /  0mm
18:34 25.0 °F /  -3.9 °C 17.6 °F /  -8 °C 29.78in /  1008.4hPa West 5.0mph /  8km/h 10.0mph /  16.1km/h 73% 0.00in /  0mm
18:39 25.0 °F /  -3.9 °C 17.6 °F /  -8 °C 29.78in /  1008.4hPa West 5.0mph /  8km/h 9.0mph /  14.5km/h 73% 0.00in /  0mm
18:44 25.0 °F /  -3.9 °C 17.6 °F /  -8 °C 29.78in /  1008.4hPa West 5.0mph /  8km/h 9.0mph /  14.5km/h 73% 0.00in /  0mm
18:49 25.0 °F /  -3.9 °C 17.6 °F /  -8 °C 29.78in /  1008.4hPa West 7.0mph /  11.3km/h 8.0mph /  12.9km/h 73% 0.00in /  0mm
18:54 25.0 °F /  -3.9 °C 17.6 °F /  -8 °C 29.78in /  1008.4hPa WNW 8.0mph /  12.9km/h 8.0mph /  12.9km/h 73% 0.00in /  0mm
18:59 25.1 °F /  -3.8 °C 17.3 °F /  -8.2 °C 29.78in /  1008.4hPa West 4.0mph /  6.4km/h 9.0mph /  14.5km/h 72% 0.00in /  0mm
19:04 25.1 °F /  -3.8 °C 17.3 °F /  -8.2 °C 29.79in /  1008.7hPa West 5.0mph /  8km/h 9.0mph /  14.5km/h 72% 0.00in /  0mm
19:09 25.1 °F /  -3.8 °C 17.3 °F /  -8.2 °C 29.79in /  1008.7hPa West 5.0mph /  8km/h 9.0mph /  14.5km/h 72% 0.00in /  0mm
19:14 25.1 °F /  -3.8 °C 17.7 °F /  -7.9 °C 29.79in /  1008.7hPa West 7.0mph /  11.3km/h 9.0mph /  14.5km/h 73% 0.00in /  0mm
19:19 25.1 °F /  -3.8 °C 17.7 °F /  -7.9 °C 29.79in /  1008.7hPa WNW 3.0mph /  4.8km/h 10.0mph /  16.1km/h 73% 0.00in /  0mm
19:24 25.1 °F /  -3.8 °C 17.7 °F /  -7.9 °C 29.79in /  1008.7hPa NW 6.0mph /  9.7km/h 8.0mph /  12.9km/h 73% 0.00in /  0mm
19:29 25.1 °F /  -3.8 °C 17.7 °F /  -7.9 °C 29.79in /  1008.7hPa West 5.0mph /  8km/h 11.0mph /  17.7km/h 73% 0.00in /  0mm
19:34 25.1 °F /  -3.8 °C 17.7 °F /  -7.9 °C 29.79in /  1008.7hPa West 5.0mph /  8km/h 11.0mph /  17.7km/h 73% 0.00in /  0mm
19:39 25.1 °F /  -3.8 °C 17.7 °F /  -7.9 °C 29.79in /  1008.7hPa West 4.0mph /  6.4km/h 9.0mph /  14.5km/h 73% 0.00in /  0mm
19:44 25.0 °F /  -3.9 °C 17.2 °F /  -8.2 °C 29.78in /  1008.4hPa WNW 5.0mph /  8km/h 11.0mph /  17.7km/h 72% 0.00in /  0mm
19:49 24.9 °F /  -3.9 °C 16.8 °F /  -8.4 °C 29.78in /  1008.4hPa West 3.0mph /  4.8km/h 10.0mph /  16.1km/h 71% 0.00in /  0mm
19:54 24.8 °F /  -4 °C 17.1 °F /  -8.3 °C 29.78in /  1008.4hPa West 5.0mph /  8km/h 8.0mph /  12.9km/h 72% 0.00in /  0mm
19:59 24.7 °F /  -4.1 °C 17.0 °F /  -8.3 °C 29.79in /  1008.7hPa NW 3.0mph /  4.8km/h 9.0mph /  14.5km/h 72% 0.00in /  0mm
20:04 24.7 °F /  -4.1 °C 17.3 °F /  -8.2 °C 29.78in /  1008.4hPa NW 4.0mph /  6.4km/h 9.0mph /  14.5km/h 73% 0.00in /  0mm
20:09 24.6 °F /  -4.1 °C 17.2 °F /  -8.2 °C 29.78in /  1008.4hPa West 6.0mph /  9.7km/h 9.0mph /  14.5km/h 73% 0.00in /  0mm
20:14 24.5 °F /  -4.2 °C 17.1 °F /  -8.3 °C 29.78in /  1008.4hPa WNW 4.0mph /  6.4km/h 9.0mph /  14.5km/h 73% 0.00in /  0mm
20:19 24.4 °F /  -4.2 °C 17.0 °F /  -8.3 °C 29.78in /  1008.4hPa West 1.0mph /  1.6km/h 8.0mph /  12.9km/h 73% 0.00in /  0mm
20:24 24.2 °F /  -4.3 °C 16.8 °F /  -8.4 °C 29.78in /  1008.4hPa WNW 3.0mph /  4.8km/h 7.0mph /  11.3km/h 73% 0.00in /  0mm
20:29 24.0 °F /  -4.4 °C 16.6 °F /  -8.6 °C 29.78in /  1008.4hPa WNW 2.0mph /  3.2km/h 7.0mph /  11.3km/h 73% 0.00in /  0mm
20:34 23.7 °F /  -4.6 °C 16.6 °F /  -8.6 °C 29.78in /  1008.4hPa West 5.0mph /  8km/h 6.0mph /  9.7km/h 74% 0.00in /  0mm
20:39 23.5 °F /  -4.7 °C 16.4 °F /  -8.7 °C 29.78in /  1008.4hPa WNW 2.0mph /  3.2km/h 6.0mph /  9.7km/h 74% 0.00in /  0mm
20:44 23.3 °F /  -4.8 °C 16.2 °F /  -8.8 °C 29.78in /  1008.4hPa WNW 2.0mph /  3.2km/h 5.0mph /  8km/h 74% 0.00in /  0mm
20:49 23.1 °F /  -4.9 °C 16.0 °F /  -8.9 °C 29.78in /  1008.4hPa West 2.0mph /  3.2km/h 4.0mph /  6.4km/h 74% 0.00in /  0mm
20:54 22.8 °F /  -5.1 °C 15.8 °F /  -9 °C 29.78in /  1008.4hPa West 2.0mph /  3.2km/h 5.0mph /  8km/h 74% 0.00in /  0mm
20:59 22.6 °F /  -5.2 °C 15.9 °F /  -8.9 °C 29.78in /  1008.4hPa WNW 1.0mph /  1.6km/h 3.0mph /  4.8km/h 75% 0.00in /  0mm
21:04 22.4 °F /  -5.3 °C 16.0 °F /  -8.9 °C 29.78in /  1008.4hPa West 1.0mph /  1.6km/h 4.0mph /  6.4km/h 76% 0.00in /  0mm
21:09 22.2 °F /  -5.4 °C 15.8 °F /  -9 °C 29.78in /  1008.4hPa West 1.0mph /  1.6km/h 4.0mph /  6.4km/h 76% 0.00in /  0mm
21:14 22.1 °F /  -5.5 °C 15.7 °F /  -9.1 °C 29.78in /  1008.4hPa Calm   2.0mph /  3.2km/h 76% 0.00in /  0mm
21:19 21.9 °F /  -5.6 °C 15.5 °F /  -9.2 °C 29.78in /  1008.4hPa Calm     76% 0.00in /  0mm
21:24 21.7 °F /  -5.7 °C 15.0 °F /  -9.4 °C 29.78in /  1008.4hPa Calm     75% 0.00in /  0mm
21:29 21.4 °F /  -5.9 °C 14.4 °F /  -9.8 °C 29.78in /  1008.4hPa Calm     74% 0.00in /  0mm
21:34 20.9 °F /  -6.2 °C 13.9 °F /  -10.1 °C 29.79in /  1008.7hPa Calm     74% 0.00in /  0mm
21:39 20.6 °F /  -6.3 °C 13.6 °F /  -10.2 °C 29.79in /  1008.7hPa Calm     74% 0.00in /  0mm
21:44 20.3 °F /  -6.5 °C 13.3 °F /  -10.4 °C 29.79in /  1008.7hPa Calm     74% 0.00in /  0mm
21:49 20.0 °F /  -6.7 °C 13.6 °F /  -10.2 °C 29.79in /  1008.7hPa Calm   2.0mph /  3.2km/h 76% 0.00in /  0mm
21:54 19.7 °F /  -6.8 °C 13.7 °F /  -10.2 °C 29.79in /  1008.7hPa WNW 1.0mph /  1.6km/h 3.0mph /  4.8km/h 77% 0.00in /  0mm
21:59 19.5 °F /  -6.9 °C 13.8 °F /  -10.1 °C 29.78in /  1008.4hPa WNW 1.0mph /  1.6km/h 3.0mph /  4.8km/h 78% 0.00in /  0mm
22:04 19.3 °F /  -7.1 °C 13.9 °F /  -10.1 °C 29.78in /  1008.4hPa Calm     79% 0.00in /  0mm
22:09 19.2 °F /  -7.1 °C 13.8 °F /  -10.1 °C 29.78in /  1008.4hPa Calm     79% 0.00in /  0mm
22:19 18.9 °F /  -7.3 °C 13.5 °F /  -10.3 °C 29.79in /  1008.7hPa Calm     79% 0.00in /  0mm
22:24 18.8 °F /  -7.3 °C 13.7 °F /  -10.2 °C 29.79in /  1008.7hPa Calm     80% 0.00in /  0mm
22:30 18.6 °F /  -7.4 °C 13.5 °F /  -10.3 °C 29.79in /  1008.7hPa Calm     80% 0.00in /  0mm
22:34 18.4 °F /  -7.6 °C 13.3 °F /  -10.4 °C 29.79in /  1008.7hPa Calm     80% 0.00in /  0mm
22:39 18.3 °F /  -7.6 °C 13.4 °F /  -10.3 °C 29.79in /  1008.7hPa Calm   2.0mph /  3.2km/h 81% 0.00in /  0mm
22:44 18.2 °F /  -7.7 °C 13.6 °F /  -10.2 °C 29.79in /  1008.7hPa Calm   3.0mph /  4.8km/h 82% 0.00in /  0mm
22:49 18.2 °F /  -7.7 °C 13.9 °F /  -10.1 °C 29.79in /  1008.7hPa WNW 1.0mph /  1.6km/h 3.0mph /  4.8km/h 83% 0.00in /  0mm
22:54 18.2 °F /  -7.7 °C 13.9 °F /  -10.1 °C 29.79in /  1008.7hPa Calm   2.0mph /  3.2km/h 83% 0.00in /  0mm
22:59 18.3 °F /  -7.6 °C 14.3 °F /  -9.8 °C 29.79in /  1008.7hPa Calm   2.0mph /  3.2km/h 84% 0.00in /  0mm
23:04 18.3 °F /  -7.6 °C 14.3 °F /  -9.8 °C 29.79in /  1008.7hPa Calm   2.0mph /  3.2km/h 84% 0.00in /  0mm
23:09 18.4 °F /  -7.6 °C 14.4 °F /  -9.8 °C 29.79in /  1008.7hPa Calm   3.0mph /  4.8km/h 84% 0.00in /  0mm
23:14 18.6 °F /  -7.4 °C 14.8 °F /  -9.6 °C 29.79in /  1008.7hPa NNW 3.0mph /  4.8km/h 4.0mph /  6.4km/h 85% 0.00in /  0mm
23:19 19.0 °F /  -7.2 °C 15.5 °F /  -9.2 °C 29.80in /  1009hPa NNW 4.0mph /  6.4km/h 4.0mph /  6.4km/h 86% 0.00in /  0mm
23:24 19.5 °F /  -6.9 °C 16.0 °F /  -8.9 °C 29.80in /  1009hPa NW 2.0mph /  3.2km/h 5.0mph /  8km/h 86% 0.00in /  0mm
23:29 20.0 °F /  -6.7 °C 16.5 °F /  -8.6 °C 29.80in /  1009hPa NW 3.0mph /  4.8km/h 6.0mph /  9.7km/h 86% 0.00in /  0mm
23:34 20.4 °F /  -6.4 °C 16.9 °F /  -8.4 °C 29.80in /  1009hPa NNW 2.0mph /  3.2km/h 4.0mph /  6.4km/h 86% 0.00in /  0mm
23:39 20.9 °F /  -6.2 °C 17.1 °F /  -8.3 °C 29.80in /  1009hPa NNW 2.0mph /  3.2km/h 6.0mph /  9.7km/h 85% 0.00in /  0mm
23:44 21.1 °F /  -6.1 °C 17.3 °F /  -8.2 °C 29.80in /  1009hPa NNW 3.0mph /  4.8km/h 6.0mph /  9.7km/h 85% 0.00in /  0mm
23:49 21.4 °F /  -5.9 °C 17.6 °F /  -8 °C 29.80in /  1009hPa NW 2.0mph /  3.2km/h 4.0mph /  6.4km/h 85% 0.00in /  0mm
23:54 21.5 °F /  -5.8 °C 17.4 °F /  -8.1 °C 29.80in /  1009hPa NNW 2.0mph /  3.2km/h 4.0mph /  6.4km/h 84% 0.00in /  0mm
23:59 21.6 °F /  -5.8 °C 17.5 °F /  -8.1 °C 29.79in /  1008.7hPa NNW 2.0mph /  3.2km/h 5.0mph /  8km/h 84% 0.00in /  0mm
Buffalo, New York, USA
Compliments of Weather Underground - 2.5 mb